Time;durP1;ratioP1;P1;durP2;ratioP2;P2;SDS_P1;SDS_P2;PMS_P1;PMS_P2;Temp;Humidity;BMP_temperature;BMP_pressure;BME280_temperature;BME280_humidity;BME280_pressure;Samples;Min_cycle;Max_cycle;Signal;HPM_P1;HPM_P2
2022/09/20 00:01:06;;;;;;;7.87;2.90;;;;;;;7.99;100.00;96685.13;5064920;28;20040;-76
2022/09/20 00:03:33;;;;;;;4.30;2.73;;;;;;;8.03;100.00;96683.88;5052428;28;20122;-75
2022/09/20 00:06:02;;;;;;;5.50;2.67;;;;;;;7.97;100.00;96681.78;5059107;28;20112;-76
2022/09/20 00:08:28;;;;;;;7.47;3.97;;;;;;;7.95;100.00;96684.56;5064757;28;20036;-75
2022/09/20 00:11:05;;;;;;;5.43;2.83;;;;;;;7.93;100.00;96685.63;5064496;28;20158;-75
2022/09/20 00:13:33;;;;;;;7.17;2.73;;;;;;;7.93;100.00;96683.03;5059812;28;20033;-75
2022/09/20 00:16:03;;;;;;;4.93;2.50;;;;;;;7.89;100.00;96681.63;5055658;28;20483;-75
2022/09/20 00:18:28;;;;;;;7.70;2.93;;;;;;;7.79;100.00;96687.66;5065620;28;20529;-75
2022/09/20 00:20:54;;;;;;;5.87;2.60;;;;;;;7.70;100.00;96680.56;5064906;28;20036;-76
2022/09/20 00:23:20;;;;;;;7.10;2.40;;;;;;;7.71;100.00;96682.25;5065305;28;20033;-75
2022/09/20 00:25:54;;;;;;;4.33;2.57;;;;;;;7.69;100.00;96686.78;5064839;28;20033;-76
2022/09/20 00:28:19;;;;;;;5.83;3.30;;;;;;;7.68;100.00;96676.41;5059975;28;20501;-75
2022/09/20 00:30:45;;;;;;;4.23;2.60;;;;;;;7.69;100.00;96672.84;5059850;28;20062;-76
2022/09/20 00:33:10;;;;;;;8.77;3.03;;;;;;;7.60;100.00;96676.25;5065852;28;20036;-76
2022/09/20 00:35:36;;;;;;;4.83;2.40;;;;;;;7.51;100.00;96681.31;5065332;28;20024;-75
2022/09/20 00:38:02;;;;;;;5.97;2.83;;;;;;;7.44;100.00;96684.56;5058078;28;20032;-75
2022/09/20 00:40:27;;;;;;;4.60;2.03;;;;;;;7.37;100.00;96683.41;5058690;28;20453;-75
2022/09/20 00:42:53;;;;;;;6.37;2.40;;;;;;;7.33;100.00;96675.81;5072819;28;20043;-75
2022/09/20 00:45:26;;;;;;;5.50;2.50;;;;;;;7.36;100.00;96676.53;5059159;28;20108;-75
2022/09/20 00:48:02;;;;;;;5.40;2.50;;;;;;;7.31;100.00;96664.66;5069316;28;20032;-75
2022/09/20 00:50:44;;;;;;;6.97;2.70;;;;;;;7.28;100.00;96670.16;5068950;28;20039;-76
2022/09/20 00:53:28;;;;;;;8.87;2.30;;;;;;;7.29;100.00;96666.56;5062791;28;20478;-75
2022/09/20 00:56:03;;;;;;;4.93;2.00;;;;;;;7.31;100.00;96667.28;5066016;28;20059;-76
2022/09/20 00:58:34;;;;;;;5.70;2.53;;;;;;;7.23;100.00;96677.53;5062937;28;20102;-76
2022/09/20 01:01:00;;;;;;;5.93;2.10;;;;;;;7.23;100.00;96671.47;5065865;28;20086;-75
2022/09/20 01:03:30;;;;;;;5.23;2.30;;;;;;;7.16;100.00;96676.41;5065932;28;20472;-75
2022/09/20 01:05:58;;;;;;;5.03;2.50;;;;;;;7.17;100.00;96678.03;5062728;28;20444;-75
2022/09/20 01:08:24;;;;;;;5.27;2.43;;;;;;;7.11;100.00;96673.34;5068482;28;20449;-74
2022/09/20 01:10:51;;;;;;;3.83;2.40;;;;;;;7.06;100.00;96675.50;5067985;28;20058;-74
2022/09/20 01:13:16;;;;;;;4.33;2.40;;;;;;;7.06;100.00;96680.72;5068265;28;20055;-74
2022/09/20 01:15:46;;;;;;;6.00;2.60;;;;;;;7.00;100.00;96671.59;5064034;28;20110;-74
2022/09/20 01:18:12;;;;;;;9.93;4.00;;;;;;;6.98;100.00;96673.53;5059560;28;20041;-74
2022/09/20 01:20:41;;;;;;;5.00;2.47;;;;;;;6.98;100.00;96683.97;5065473;28;20119;-75
2022/09/20 01:23:43;;;;;;;7.33;2.70;;;;;;;6.99;100.00;96682.19;5057137;28;20033;-74
2022/09/20 01:26:15;;;;;;;7.53;2.47;;;;;;;7.00;100.00;96678.63;5062269;28;20405;-74
2022/09/20 01:28:46;;;;;;;4.55;2.55;;;;;;;7.01;100.00;96677.69;5060500;28;20025;-74
2022/09/20 01:31:21;;;;;;;4.33;2.67;;;;;;;6.99;100.00;96679.56;5062935;28;20043;-75
2022/09/20 01:34:03;;;;;;;6.97;2.30;;;;;;;6.93;100.00;96675.66;5034319;28;20032;-75
2022/09/20 01:36:36;;;;;;;4.93;2.27;;;;;;;6.97;100.00;96681.47;5056263;28;20032;-74
2022/09/20 01:39:37;;;;;;;4.97;2.67;;;;;;;7.00;100.00;96676.81;5066598;28;20097;-75
2022/09/20 01:42:10;;;;;;;5.40;2.87;;;;;;;7.03;100.00;96673.13;5064659;28;20043;-74
2022/09/20 01:45:14;;;;;;;5.70;2.38;;;;;;;7.06;100.00;96675.50;5064897;28;20120;-74
2022/09/20 01:48:03;;;;;;;5.97;3.00;;;;;;;7.06;100.00;96676.31;5063638;28;20112;-74
2022/09/20 01:50:51;;;;;;;6.93;3.33;;;;;;;7.20;100.00;96676.97;5056548;28;20067;-74
2022/09/20 01:54:04;;;;;;;7.97;3.53;;;;;;;7.17;100.00;96677.22;5054988;28;20032;-75
2022/09/20 01:56:51;;;;;;;7.00;3.27;;;;;;;7.21;100.00;96674.25;5050243;28;21015;-74
2022/09/20 01:59:53;;;;;;;8.00;3.73;;;;;;;7.19;100.00;96677.94;5060361;28;20047;-75
2022/09/20 02:02:40;;;;;;;9.90;4.73;;;;;;;7.27;100.00;96683.34;5057377;28;20094;-74
2022/09/20 02:05:12;;;;;;;9.97;4.70;;;;;;;7.30;100.00;96677.84;5064729;28;20032;-74
2022/09/20 02:07:51;;;;;;;11.03;6.67;;;;;;;7.30;100.00;96681.31;5061402;28;20090;-74
2022/09/20 02:10:31;;;;;;;11.20;5.90;;;;;;;7.33;100.00;96673.19;5058709;28;20079;-74
2022/09/20 02:13:09;;;;;;;9.90;6.07;;;;;;;7.36;100.00;96676.53;5069143;28;20039;-74
2022/09/20 02:15:56;;;;;;;9.47;5.97;;;;;;;7.30;100.00;96678.69;5060809;28;20024;-74
2022/09/20 02:18:50;;;;;;;10.67;5.60;;;;;;;7.31;100.00;96675.13;5066624;28;20036;-74
2022/09/20 02:21:32;;;;;;;10.57;6.13;;;;;;;7.40;100.00;96675.31;5072242;28;20028;-74
2022/09/20 02:24:23;;;;;;;9.57;6.87;;;;;;;7.44;100.00;96676.69;5062945;28;20535;-74
2022/09/20 02:27:07;;;;;;;12.33;6.77;;;;;;;7.44;100.00;96679.31;5065254;28;20024;-74
2022/09/20 02:29:49;;;;;;;11.13;6.43;;;;;;;7.47;100.00;96679.88;5066035;28;20039;-74
2022/09/20 02:32:42;;;;;;;12.13;6.80;;;;;;;7.54;100.00;96680.19;5066457;28;20409;-74
2022/09/20 02:35:27;;;;;;;13.57;7.75;;;;;;;7.52;100.00;96688.19;5063961;28;20119;-74
2022/09/20 02:38:01;;;;;;;11.40;7.13;;;;;;;7.55;100.00;96680.09;5061103;28;20115;-74
2022/09/20 02:41:03;;;;;;;11.57;8.73;;;;;;;7.54;100.00;96680.19;5059627;28;20449;-75
2022/09/20 02:43:43;;;;;;;15.23;9.07;;;;;;;7.55;100.00;96674.03;5063584;28;20065;-74
2022/09/20 02:46:49;;;;;;;13.27;8.33;;;;;;;7.55;100.00;96682.72;5052964;28;20040;-74
2022/09/20 02:49:52;;;;;;;12.90;8.63;;;;;;;7.61;100.00;96681.34;5063466;28;20029;-75
2022/09/20 02:52:31;;;;;;;11.60;8.07;;;;;;;7.56;100.00;96675.69;5060527;28;20119;-74
2022/09/20 02:55:17;;;;;;;13.20;9.50;;;;;;;7.57;100.00;96685.19;5067176;28;20631;-74
2022/09/20 02:57:52;;;;;;;12.73;8.77;;;;;;;7.57;100.00;96685.19;5061646;28;20028;-75
2022/09/20 03:00:23;;;;;;;13.87;8.50;;;;;;;7.56;100.00;96688.75;5065285;28;20086;-74
2022/09/20 03:03:01;;;;;;;13.47;8.43;;;;;;;7.60;100.00;96690.16;5046032;28;20041;-75
2022/09/20 03:05:41;;;;;;;11.70;8.27;;;;;;;7.64;100.00;96694.16;5066546;28;20553;-75
2022/09/20 03:08:27;;;;;;;15.37;10.00;;;;;;;7.63;100.00;96687.28;5059734;28;20065;-74
2022/09/20 03:11:01;;;;;;;11.03;7.87;;;;;;;7.62;100.00;96693.50;5042092;28;20043;-74
2022/09/20 03:13:47;;;;;;;15.52;9.25;;;;;;;7.66;100.00;96689.66;5064746;28;20035;-74
2022/09/20 03:16:50;;;;;;;16.07;9.27;;;;;;;7.65;100.00;96690.63;5063504;28;20028;-75
2022/09/20 03:19:24;;;;;;;16.40;8.67;;;;;;;7.62;100.00;96693.50;5058260;28;20083;-75
2022/09/20 03:21:59;;;;;;;14.73;9.20;;;;;;;7.64;100.00;96691.56;5032304;28;20090;-75
2022/09/20 03:24:28;;;;;;;12.47;9.10;;;;;;;7.66;100.00;96694.88;5064764;28;20052;-75
2022/09/20 03:27:26;;;;;;;13.83;9.13;;;;;;;7.69;100.00;96696.41;5052647;28;20043;-74
2022/09/20 03:30:03;;;;;;;13.30;8.13;;;;;;;7.63;100.00;96691.69;5058541;28;20101;-74
2022/09/20 03:32:43;;;;;;;12.87;8.33;;;;;;;7.67;100.00;96695.69;5056257;28;20033;-75
2022/09/20 03:35:48;;;;;;;13.57;8.93;;;;;;;7.72;100.00;96698.78;5063052;28;20052;-74
2022/09/20 03:38:38;;;;;;;13.40;8.70;;;;;;;7.70;100.00;96693.66;5063818;28;20049;-75
2022/09/20 03:41:22;;;;;;;16.10;8.60;;;;;;;7.71;100.00;96690.09;5063658;28;20424;-74
2022/09/20 03:44:17;;;;;;;14.85;8.73;;;;;;;7.73;100.00;96695.19;5057069;28;20068;-74
2022/09/20 03:46:46;;;;;;;14.20;8.90;;;;;;;7.71;100.00;96697.09;5062177;28;20048;-75
2022/09/20 03:49:25;;;;;;;14.93;8.87;;;;;;;7.72;100.00;96689.13;5064757;28;20541;-74
2022/09/20 03:52:19;;;;;;;24.47;16.60;;;;;;;7.75;100.00;96691.50;5060286;28;20071;-75
2022/09/20 03:55:03;;;;;;;14.63;10.02;;;;;;;7.75;100.00;96688.03;5064355;28;20040;-74
2022/09/20 03:57:28;;;;;;;;;;;;;;;7.70;100.00;96690.22;5044643;28;20500;-74
2022/09/20 04:00:19;;;;;;;14.93;9.40;;;;;;;7.68;100.00;96692.13;5065137;28;19912;-75
2022/09/20 04:03:01;;;;;;;12.53;9.00;;;;;;;7.68;100.00;96690.34;5058945;28;20055;-74
2022/09/20 04:06:25;;;;;;;16.30;7.88;;;;;;;7.64;100.00;96694.16;5063211;28;20048;-75
2022/09/20 04:09:11;;;;;;;11.43;7.40;;;;;;;7.66;100.00;96692.25;5062879;28;20055;-74
2022/09/20 04:12:09;;;;;;;11.53;6.67;;;;;;;7.65;100.00;96688.00;5055405;28;20087;-75
2022/09/20 04:14:38;;;;;;;9.17;5.83;;;;;;;7.67;100.00;96685.22;5067038;28;20100;-75
2022/09/20 04:17:21;;;;;;;19.37;6.87;;;;;;;7.53;100.00;96689.03;5062017;28;20028;-75
2022/09/20 04:20:25;;;;;;;10.23;4.80;;;;;;;7.54;100.00;96678.44;5053566;28;20127;-74
2022/09/20 04:22:54;;;;;;;9.60;6.00;;;;;;;7.47;100.00;96690.34;5062088;28;20387;-74
2022/09/20 04:25:28;;;;;;;12.10;6.70;;;;;;;7.49;100.00;96696.31;5069821;28;20035;-75
2022/09/20 04:28:01;;;;;;;10.60;6.67;;;;;;;7.48;100.00;96696.44;5051962;28;20040;-74
2022/09/20 04:30:32;;;;;;;9.95;6.47;;;;;;;7.47;100.00;96695.59;5069435;28;20032;-74
2022/09/20 04:33:04;;;;;;;12.63;7.53;;;;;;;7.50;100.00;96700.56;5069122;28;20032;-74
2022/09/20 04:39:04;;;;;;;11.33;6.80;;;;;;;7.48;100.00;96699.88;5067806;28;20072;-74
2022/09/20 04:41:48;;;;;;;12.15;5.90;;;;;;;7.47;100.00;96695.59;5066587;28;20028;-74
2022/09/20 04:44:29;;;;;;;11.40;6.80;;;;;;;7.43;100.00;96699.44;5065487;28;20032;-75
2022/09/20 04:47:30;;;;;;;11.87;7.00;;;;;;;7.47;100.00;96703.44;5068056;28;20557;-75
2022/09/20 04:50:25;;;;;;;10.77;7.13;;;;;;;7.54;100.00;96709.00;5053043;28;20041;-74
2022/09/20 04:53:33;;;;;;;10.70;6.93;;;;;;;7.53;100.00;96712.56;5063848;28;20401;-74
2022/09/20 04:56:00;;;;;;;;;;;;;;;7.48;100.00;96726.06;5072115;28;20135;-74
2022/09/20 04:58:35;;;;;;;13.07;7.23;;;;;;;7.52;100.00;96718.78;5056050;28;19916;-74
2022/09/20 05:01:15;;;;;;;13.63;7.90;;;;;;;7.53;100.00;96730.91;5061321;28;20071;-74
2022/09/20 05:04:11;;;;;;;13.60;7.30;;;;;;;7.53;100.00;96726.47;5057275;28;20390;-75
2022/09/20 05:06:58;;;;;;;17.90;7.13;;;;;;;7.57;100.00;96727.88;5065892;28;20025;-74
2022/09/20 05:09:48;;;;;;;14.13;7.07;;;;;;;7.49;100.00;96722.47;5064207;28;20115;-74
2022/09/20 05:12:26;;;;;;;11.60;7.57;;;;;;;7.55;100.00;96731.59;5064787;28;20397;-75
2022/09/20 05:15:07;;;;;;;11.60;7.90;;;;;;;7.59;100.00;96730.38;5061400;28;20156;-74
2022/09/20 05:18:18;;;;;;;10.43;6.57;;;;;;;7.53;100.00;96734.34;5068563;28;20087;-75
2022/09/20 05:21:22;;;;;;;11.90;5.90;;;;;;;7.59;100.00;96740.84;5067437;28;20044;-74
2022/09/20 05:23:54;;;;;;;12.02;6.63;;;;;;;7.65;100.00;96732.50;5058579;28;20501;-74
2022/09/20 05:26:50;;;;;;;9.70;6.47;;;;;;;7.64;100.00;96743.06;5066032;28;20060;-75
2022/09/20 05:29:35;;;;;;;10.60;7.07;;;;;;;7.59;100.00;96740.84;5058861;28;20414;-74
2022/09/20 05:32:17;;;;;;;13.33;6.83;;;;;;;7.64;100.00;96736.03;5060490;28;20820;-75
2022/09/20 05:34:43;;;;;;;12.77;6.67;;;;;;;7.64;100.00;96743.06;5069038;28;20028;-74
2022/09/20 05:37:17;;;;;;;10.57;6.90;;;;;;;7.67;100.00;96741.03;5047841;28;20082;-74
2022/09/20 05:40:27;;;;;;;13.20;6.27;;;;;;;7.72;100.00;96736.25;5067864;28;20021;-74
2022/09/20 05:43:10;;;;;;;18.20;11.97;;;;;;;7.77;100.00;96746.31;5064429;28;20028;-74
2022/09/20 05:46:06;;;;;;;13.00;7.77;;;;;;;7.85;100.00;96751.75;5063563;28;20036;-75
2022/09/20 05:48:37;;;;;;;13.90;7.30;;;;;;;7.79;100.00;96745.25;5059720;28;20041;-75
2022/09/20 05:51:31;;;;;;;11.43;6.57;;;;;;;7.88;100.00;96750.66;5068528;28;20040;-74
2022/09/20 05:54:21;;;;;;;8.02;4.60;;;;;;;7.82;100.00;96751.19;5058418;28;20652;-74
2022/09/20 05:57:06;;;;;;;13.33;6.97;;;;;;;7.93;100.00;96753.72;5062510;28;20087;-74
2022/09/20 06:00:01;;;;;;;10.37;7.37;;;;;;;7.90;100.00;96759.22;5062423;28;20120;-74
2022/09/20 06:02:41;;;;;;;14.03;7.07;;;;;;;7.89;100.00;96766.25;5059912;28;20021;-74
2022/09/20 06:05:45;;;;;;;13.90;6.27;;;;;;;7.89;100.00;96763.63;5066975;28;20426;-75
2022/09/20 06:08:29;;;;;;;11.90;6.82;;;;;;;7.93;100.00;96761.59;5063610;28;20068;-75
2022/09/20 06:11:33;;;;;;;15.47;8.00;;;;;;;7.87;100.00;96757.69;5070323;28;20037;-75
2022/09/20 06:14:17;;;;;;;12.65;6.60;;;;;;;7.87;100.00;96764.72;5060953;28;20052;-75
2022/09/20 06:16:58;;;;;;;;;;;;;;;7.83;100.00;96760.69;5058746;28;20032;-74
2022/09/20 06:19:48;;;;;;;15.90;6.77;;;;;;;7.94;100.00;96758.81;5064622;28;20861;-74
2022/09/20 06:22:27;;;;;;;11.47;6.47;;;;;;;7.99;100.00;96763.69;5066149;28;20598;-74
2022/09/20 06:25:09;;;;;;;10.77;5.93;;;;;;;8.01;100.00;96764.38;5059959;28;20036;-74
2022/09/20 06:27:53;;;;;;;12.17;6.23;;;;;;;7.92;100.00;96763.38;5065612;28;20034;-74
2022/09/20 06:30:24;;;;;;;19.23;7.60;;;;;;;8.03;100.00;96767.69;5059608;28;20058;-74
2022/09/20 06:32:56;;;;;;;12.20;6.33;;;;;;;8.05;100.00;96763.16;5065873;28;20040;-74
2022/09/20 06:35:26;;;;;;;13.20;6.83;;;;;;;8.03;100.00;96763.28;5067438;28;20481;-75
2022/09/20 06:43:43;;;;;;;19.30;7.60;;;;;;;8.45;100.00;96762.38;5066956;28;20061;-74
2022/09/20 06:46:09;;;;;;;15.30;7.23;;;;;;;8.50;100.00;96757.56;5053281;28;20032;-74
2022/09/20 06:48:38;;;;;;;12.30;7.10;;;;;;;8.72;100.00;96757.38;5050046;28;20053;-74
2022/09/20 06:51:07;;;;;;;15.30;7.17;;;;;;;9.47;100.00;96747.19;5045486;28;20101;-74
2022/09/20 06:53:39;;;;;;;15.30;6.43;;;;;;;9.84;100.00;96741.19;5044767;28;20421;-75
2022/09/20 06:56:13;;;;;;;11.10;6.00;;;;;;;9.78;100.00;96739.13;4997945;28;22065;-75
2022/09/20 06:58:39;;;;;;;15.20;6.40;;;;;;;9.99;100.00;96725.78;5002201;28;20020;-74
2022/09/20 07:01:05;;;;;;;12.70;6.13;;;;;;;10.19;100.00;96729.16;4985707;28;20032;-76
2022/09/20 07:03:31;;;;;;;12.50;5.73;;;;;;;9.74;100.00;96737.75;4965687;28;20036;-74
2022/09/20 07:05:59;;;;;;;14.13;5.53;;;;;;;9.63;100.00;96734.31;4991887;28;20024;-74
2022/09/20 07:08:25;;;;;;;9.77;5.10;;;;;;;9.77;100.00;96740.09;5018946;28;21065;-75
2022/09/20 07:10:51;;;;;;;10.93;5.57;;;;;;;9.40;100.00;96749.53;5022032;28;20037;-75
2022/09/20 07:13:18;;;;;;;11.40;5.37;;;;;;;9.40;100.00;96748.72;5018217;28;20025;-75
2022/09/20 07:15:44;;;;;;;9.10;5.13;;;;;;;9.66;100.00;96741.91;5022713;28;20040;-77
2022/09/20 07:18:10;;;;;;;17.07;6.17;;;;;;;9.56;100.00;96738.47;5032931;28;20059;-75
2022/09/20 07:20:35;;;;;;;8.40;4.90;;;;;;;9.35;100.00;96749.13;5012289;28;20032;-75
2022/09/20 07:23:01;;;;;;;10.70;5.27;;;;;;;9.33;100.00;96751.06;4969351;28;20111;-75
2022/09/20 07:25:27;;;;;;;11.17;5.07;;;;;;;10.70;100.00;96730.50;4914967;28;20493;-74
2022/09/20 07:27:53;;;;;;;13.43;5.13;;;;;;;10.55;100.00;96727.50;4873047;28;20597;-74
2022/09/20 07:30:20;;;;;;;14.33;4.20;;;;;;;10.24;100.00;96742.72;4874740;28;20020;-75
2022/09/20 07:32:46;;;;;;;10.03;4.40;;;;;;;10.33;100.00;96737.47;4886054;28;20044;-74
2022/09/20 07:35:12;;;;;;;11.53;4.60;;;;;;;10.06;100.00;96742.63;4857491;28;20024;-75
2022/09/20 07:37:40;;;;;;;7.50;4.13;;;;;;;10.10;100.00;96744.84;4855268;28;20230;-74
2022/09/20 07:40:06;;;;;;;10.77;4.40;;;;;;;10.75;100.00;96738.75;4850153;28;20056;-75
2022/09/20 07:42:32;;;;;;;11.60;3.90;;;;;;;12.16;100.00;96737.94;4797495;28;20031;-74
2022/09/20 07:44:58;;;;;;;8.13;3.37;;;;;;;12.24;100.00;96738.84;4810786;28;21112;-75
2022/09/20 07:47:25;;;;;;;9.90;3.10;;;;;;;11.90;100.00;96740.59;4827186;28;20481;-75
2022/09/20 07:49:51;;;;;;;8.13;3.20;;;;;;;11.60;100.00;96747.91;4902460;28;20029;-75
2022/09/20 07:52:17;;;;;;;11.13;3.53;;;;;;;11.35;100.00;96752.19;4928191;28;20132;-75
2022/09/20 07:54:44;;;;;;;11.57;3.60;;;;;;;12.00;100.00;96742.16;4924000;28;20028;-75
2022/09/20 07:57:11;;;;;;;8.80;3.03;;;;;;;12.50;100.00;96744.03;4924272;28;20032;-74
2022/09/20 07:59:37;;;;;;;10.27;3.13;;;;;;;13.51;100.00;96740.50;4923000;28;20089;-74
2022/09/20 08:02:03;;;;;;;8.40;3.03;;;;;;;13.40;100.00;96743.47;4930082;28;20029;-75
2022/09/20 08:04:28;;;;;;;8.47;2.63;;;;;;;13.68;100.00;96741.31;4949517;28;20841;-75
2022/09/20 08:06:54;;;;;;;7.40;2.90;;;;;;;13.43;100.00;96741.31;4997985;28;20027;-76
2022/09/20 08:09:20;;;;;;;11.63;2.83;;;;;;;13.69;100.00;96745.63;4997035;28;20051;-75
2022/09/20 08:11:46;;;;;;;9.53;2.90;;;;;;;13.18;100.00;96753.66;4995801;28;20036;-75
2022/09/20 08:14:14;;;;;;;10.33;3.00;;;;;;;12.62;100.00;96751.69;4995114;28;20044;-74
2022/09/20 08:16:46;;;;;;;7.37;3.10;;;;;;;12.32;100.00;96753.88;4996370;28;20036;-74
2022/09/20 08:19:22;;;;;;;5.37;2.50;;;;;;;12.38;100.00;96766.44;5000065;28;20028;-74
2022/09/20 08:21:50;;;;;;;8.47;2.90;;;;;;;12.11;100.00;96763.97;5001926;28;20036;-74
2022/09/20 08:24:16;;;;;;;7.43;2.30;;;;;;;11.70;100.00;96771.53;5023006;28;20028;-74
2022/09/20 08:26:42;;;;;;;8.03;2.30;;;;;;;11.61;100.00;96770.66;5027658;28;20032;-74
2022/09/20 08:29:08;;;;;;;8.77;2.37;;;;;;;11.26;100.00;96768.88;5042594;28;20749;-74
2022/09/20 08:31:36;;;;;;;6.73;2.00;;;;;;;11.26;100.00;96764.41;5024147;28;20066;-75
2022/09/20 08:34:07;;;;;;;8.23;2.30;;;;;;;10.77;100.00;96773.66;5044702;28;20035;-74
2022/09/20 08:36:35;;;;;;;12.60;2.03;;;;;;;12.25;100.00;96760.75;5049581;28;20088;-74
2022/09/20 08:39:01;;;;;;;9.27;2.30;;;;;;;14.29;100.00;96752.31;5065578;28;20025;-75
2022/09/20 08:42:01;;;;;;;7.00;2.30;;;;;;;14.46;100.00;96750.44;5056649;28;20040;-75
2022/09/20 08:44:28;;;;;;;8.57;1.73;;;;;;;13.71;100.00;96753.38;5055447;28;20115;-75
2022/09/20 08:47:12;;;;;;;6.73;1.80;;;;;;;12.71;100.00;96756.03;5057313;28;20511;-75
2022/09/20 08:49:39;;;;;;;7.10;2.20;;;;;;;12.20;100.00;96761.19;5075801;28;20094;-75
2022/09/20 08:52:05;;;;;;;6.80;2.00;;;;;;;12.14;100.00;96764.50;5057446;28;20429;-75
2022/09/20 08:54:34;;;;;;;7.40;2.00;;;;;;;11.33;100.00;96773.41;5057236;28;20032;-75
2022/09/20 08:57:11;;;;;;;10.77;2.20;;;;;;;11.12;100.00;96772.84;5054857;28;20044;-75
2022/09/20 08:59:39;;;;;;;9.37;2.47;;;;;;;10.69;100.00;96776.16;5055353;28;20021;-75
2022/09/20 09:02:16;;;;;;;7.50;1.90;;;;;;;10.85;100.00;96777.19;5055617;28;20016;-75
2022/09/20 09:04:44;;;;;;;7.17;2.10;;;;;;;10.59;100.00;96779.66;5057712;28;20028;-75
2022/09/20 09:07:15;;;;;;;7.93;2.60;;;;;;;10.98;100.00;96781.25;5056502;28;20032;-75
2022/09/20 09:09:42;;;;;;;9.37;2.60;;;;;;;10.96;100.00;96780.56;5058770;28;20059;-75
2022/09/20 09:12:35;;;;;;;8.00;2.53;;;;;;;10.89;100.00;96782.97;5047040;28;20033;-75
2022/09/20 09:15:29;;;;;;;8.33;2.50;;;;;;;10.88;100.00;96778.69;5031232;28;20040;-75
2022/09/20 09:17:55;;;;;;;12.27;2.00;;;;;;;10.92;100.00;96793.19;5023977;28;21340;-76
2022/09/20 09:20:22;;;;;;;7.37;2.13;;;;;;;11.23;100.00;96784.97;5018454;28;20035;-75
2022/09/20 09:23:05;;;;;;;7.40;2.17;;;;;;;11.13;100.00;96785.03;5022554;28;20079;-76
2022/09/20 09:25:33;;;;;;;;;;;;;;;11.29;100.00;96781.72;5019504;28;20025;-75
2022/09/20 09:28:04;;;;;;;8.60;2.10;;;;;;;11.77;100.00;96780.53;5018466;28;19920;-75
2022/09/20 09:30:38;;;;;;;10.47;3.00;;;;;;;11.24;100.00;96773.47;5019173;28;20048;-74
2022/09/20 09:33:27;;;;;;;5.07;1.40;;;;;;;11.33;100.00;96764.66;5004115;28;20138;-75
2022/09/20 09:35:54;;;;;;;7.03;1.60;;;;;;;13.37;100.00;96752.53;4994643;28;20664;-75
2022/09/20 09:38:23;;;;;;;9.47;1.80;;;;;;;14.25;100.00;96740.41;4999059;28;20418;-75
2022/09/20 09:41:00;;;;;;;10.13;2.50;;;;;;;14.86;100.00;96738.88;5002487;28;20043;-75
2022/09/20 09:43:39;;;;;;;6.77;1.10;;;;;;;16.02;100.00;96729.91;5009478;28;20036;-76
2022/09/20 09:46:20;;;;;;;9.27;2.95;;;;;;;16.41;100.00;96723.53;4993079;28;20032;-76
2022/09/20 09:48:48;;;;;;;5.22;1.67;;;;;;;16.11;100.00;96728.00;5021571;28;20190;-77
2022/09/20 09:51:19;;;;;;;7.85;1.98;;;;;;;15.07;100.00;96725.03;5019959;28;20039;-75
2022/09/20 09:53:47;;;;;;;10.15;1.52;;;;;;;16.15;100.00;96718.66;5033941;28;20160;-78
2022/09/20 09:56:26;;;;;;;5.32;1.23;;;;;;;17.16;95.32;96728.53;5018284;28;20064;-78
2022/09/20 09:59:09;;;;;;;5.53;1.10;;;;;;;15.24;99.06;96737.16;4996987;28;20032;-76
2022/09/20 10:01:47;;;;;;;5.43;1.23;;;;;;;15.96;98.09;96725.31;4983587;28;20036;-78
2022/09/20 10:04:32;;;;;;;8.15;2.35;;;;;;;15.56;100.00;96725.50;5015517;28;20036;-75
2022/09/20 10:07:00;;;;;;;6.90;1.83;;;;;;;17.25;88.43;96729.25;5016667;28;20364;-76
2022/09/20 10:09:46;;;;;;;6.65;2.03;;;;;;;17.67;73.96;96733.75;5018153;28;20075;-76
2022/09/20 10:12:35;;;;;;;13.88;3.95;;;;;;;17.52;84.41;96730.34;5016658;28;20060;-75
2022/09/20 10:15:17;;;;;;;10.38;2.75;;;;;;;15.65;94.61;96728.88;5043654;28;20036;-75
2022/09/20 10:17:54;;;;;;;10.15;3.30;;;;;;;15.52;96.44;96723.34;5020202;28;20032;-75
2022/09/20 10:20:49;;;;;;;8.85;2.97;;;;;;;16.13;89.91;96729.47;5016417;28;20040;-76
2022/09/20 10:23:43;;;;;;;6.78;1.73;;;;;;;17.33;80.66;96728.31;5017047;28;20039;-75
2022/09/20 10:26:30;;;;;;;7.20;1.13;;;;;;;17.59;64.95;96717.91;5028182;28;20402;-75
2022/09/20 10:29:08;;;;;;;9.57;1.20;;;;;;;17.14;70.03;96727.94;5042367;28;21007;-76
2022/09/20 10:31:56;;;;;;;4.00;1.08;;;;;;;16.80;69.72;96725.91;5021078;28;20049;-75
2022/09/20 10:34:46;;;;;;;5.05;0.93;;;;;;;15.93;83.56;96720.41;5038602;28;20079;-75
2022/09/20 10:37:28;;;;;;;6.32;1.20;;;;;;;15.05;90.37;96734.94;5025920;28;20046;-75
2022/09/20 10:40:13;;;;;;;7.00;1.40;;;;;;;17.01;75.83;96725.13;5039863;28;21370;-75
2022/09/20 10:45:48;;;;;;;7.68;1.90;;;;;;;16.60;75.83;96715.00;5016263;28;20039;-76
2022/09/20 10:48:47;;;;;;;6.15;1.30;;;;;;;18.03;58.01;96716.84;5052273;28;20033;-75
2022/09/20 10:51:34;;;;;;;3.50;1.13;;;;;;;17.52;60.21;96710.91;5036745;28;20025;-76
2022/09/20 10:54:15;;;;;;;5.13;1.45;;;;;;;16.68;68.81;96714.91;5002488;28;20285;-76
2022/09/20 10:56:49;;;;;;;12.43;5.25;;;;;;;15.46;75.42;96726.72;5005952;28;20063;-78
2022/09/20 10:59:30;;;;;;;12.43;6.75;;;;;;;14.36;86.44;96732.94;4978667;28;20036;-76
2022/09/20 11:02:14;;;;;;;6.88;1.58;;;;;;;14.36;86.29;96735.59;4991913;28;20036;-76
2022/09/20 11:05:04;;;;;;;5.30;1.30;;;;;;;14.48;88.99;96732.56;4990187;28;22786;-76
2022/09/20 11:08:02;;;;;;;6.30;1.45;;;;;;;14.22;93.05;96730.16;4996666;28;20043;-75
2022/09/20 11:10:35;;;;;;;6.40;1.08;;;;;;;14.25;96.17;96727.16;5001383;28;20040;-75
2022/09/20 11:13:31;;;;;;;7.07;1.10;;;;;;;14.02;100.00;96727.09;4999259;28;20043;-76
2022/09/20 11:16:07;;;;;;;9.90;1.65;;;;;;;14.13;96.11;96724.91;4994466;28;20032;-74
2022/09/20 11:18:40;;;;;;;8.48;1.55;;;;;;;13.91;98.14;96728.25;4976415;28;20759;-75
2022/09/20 11:21:24;;;;;;;13.30;5.30;;;;;;;14.21;92.65;96724.03;4979044;28;20950;-74
2022/09/20 11:24:11;;;;;;;10.85;4.55;;;;;;;14.30;98.87;96732.78;4989211;28;20388;-75
2022/09/20 11:26:43;;;;;;;5.97;1.95;;;;;;;15.81;89.17;96733.25;5000085;28;20046;-74
2022/09/20 11:29:32;;;;;;;6.57;1.10;;;;;;;16.49;77.70;96726.06;5014496;28;20670;-74
2022/09/20 11:32:19;;;;;;;7.38;1.63;;;;;;;16.30;74.80;96729.28;5015657;28;20043;-75
2022/09/20 11:35:01;;;;;;;4.72;1.35;;;;;;;17.61;65.49;96720.41;5014043;28;20111;-75
2022/09/20 11:37:35;;;;;;;5.07;1.70;;;;;;;17.96;62.44;96708.00;5015388;28;20078;-76
2022/09/20 11:40:14;;;;;;;7.63;1.00;;;;;;;17.98;63.79;96716.63;5022550;28;20584;-76
2022/09/20 11:42:41;;;;;;;7.95;1.17;;;;;;;17.71;57.85;96710.25;5039429;28;20050;-74
2022/09/20 11:45:12;;;;;;;6.07;1.10;;;;;;;17.74;61.05;96709.03;5047626;28;20090;-74
2022/09/20 11:47:48;;;;;;;2.53;0.80;;;;;;;18.01;57.03;96705.59;5031013;28;20063;-74
2022/09/20 11:50:31;;;;;;;5.97;0.95;;;;;;;18.49;60.80;96705.66;5053798;28;20123;-75
2022/09/20 11:53:12;;;;;;;7.55;1.50;;;;;;;19.03;56.86;96701.41;5055631;28;20115;-74
2022/09/20 11:55:47;;;;;;;4.65;1.10;;;;;;;18.72;56.66;96700.06;5056268;28;20045;-74
2022/09/20 11:58:15;;;;;;;5.78;1.20;;;;;;;18.64;57.78;96700.19;5055479;28;20509;-74
2022/09/20 12:00:45;;;;;;;6.78;1.65;;;;;;;18.01;58.95;96705.59;5073889;28;20033;-74
2022/09/20 12:03:29;;;;;;;3.92;0.95;;;;;;;16.84;60.26;96713.06;5051416;28;20036;-73
2022/09/20 12:06:04;;;;;;;6.97;1.25;;;;;;;16.19;67.12;96707.50;5044032;28;20031;-75
2022/09/20 12:08:35;;;;;;;4.78;1.20;;;;;;;15.87;78.72;96706.03;5043297;28;20044;-75
2022/09/20 12:11:12;;;;;;;4.05;1.13;;;;;;;15.14;75.11;96703.94;5047138;28;20469;-73
2022/09/20 12:13:40;;;;;;;8.18;1.70;;;;;;;15.20;84.32;96716.50;5047219;28;20036;-73
2022/09/20 12:16:15;;;;;;;7.93;2.10;;;;;;;15.02;90.72;96711.47;5060975;28;20025;-75
2022/09/20 12:18:53;;;;;;;7.88;1.30;;;;;;;15.06;85.96;96710.13;5043866;28;20043;-76
2022/09/20 12:21:20;;;;;;;5.35;1.00;;;;;;;14.94;81.43;96711.53;5030689;28;20108;-73
2022/09/20 12:23:56;;;;;;;8.52;1.35;;;;;;;14.79;86.90;96706.97;5031010;28;20079;-76
2022/09/20 12:26:25;;;;;;;5.65;0.85;;;;;;;15.46;85.25;96708.16;5030912;28;20127;-75
2022/09/20 12:28:59;;;;;;;3.92;1.05;;;;;;;16.09;71.17;96706.94;5029295;28;20032;-74
2022/09/20 12:31:25;;;;;;;5.22;1.10;;;;;;;15.25;81.71;96711.47;5020926;28;20032;-74